sensor_id;sensor_type;location;lat;lon;timestamp;temperature;humidity
19943;DHT22;10133;50.956;17.276;2022-12-18T00:01:21;20.10;99.70
19943;DHT22;10133;50.956;17.276;2022-12-18T00:03:48;20.10;99.60
19943;DHT22;10133;50.956;17.276;2022-12-18T00:06:17;20.20;99.50
19943;DHT22;10133;50.956;17.276;2022-12-18T00:08:44;20.30;99.40
19943;DHT22;10133;50.956;17.276;2022-12-18T00:11:14;20.30;99.20
19943;DHT22;10133;50.956;17.276;2022-12-18T00:13:41;20.30;99.20
19943;DHT22;10133;50.956;17.276;2022-12-18T00:16:11;20.30;99.10
19943;DHT22;10133;50.956;17.276;2022-12-18T00:18:39;20.40;99.00
19943;DHT22;10133;50.956;17.276;2022-12-18T00:21:09;20.40;98.90
19943;DHT22;10133;50.956;17.276;2022-12-18T00:23:37;20.40;98.80
19943;DHT22;10133;50.956;17.276;2022-12-18T00:26:26;20.40;98.70
19943;DHT22;10133;50.956;17.276;2022-12-18T00:28:53;20.50;98.70
19943;DHT22;10133;50.956;17.276;2022-12-18T00:31:23;20.40;98.50
19943;DHT22;10133;50.956;17.276;2022-12-18T00:33:53;20.50;98.50
19943;DHT22;10133;50.956;17.276;2022-12-18T00:36:23;20.50;98.40
19943;DHT22;10133;50.956;17.276;2022-12-18T00:38:51;20.50;98.40
19943;DHT22;10133;50.956;17.276;2022-12-18T00:41:19;20.50;98.30
19943;DHT22;10133;50.956;17.276;2022-12-18T00:44:06;20.50;98.20
19943;DHT22;10133;50.956;17.276;2022-12-18T00:46:34;20.50;98.20
19943;DHT22;10133;50.956;17.276;2022-12-18T00:49:01;20.60;98.10
19943;DHT22;10133;50.956;17.276;2022-12-18T00:51:28;20.60;98.10
19943;DHT22;10133;50.956;17.276;2022-12-18T00:53:55;20.60;98.00
19943;DHT22;10133;50.956;17.276;2022-12-18T00:56:23;20.60;98.00
19943;DHT22;10133;50.956;17.276;2022-12-18T00:58:50;20.60;97.90
19943;DHT22;10133;50.956;17.276;2022-12-18T01:01:18;20.60;97.90
19943;DHT22;10133;50.956;17.276;2022-12-18T01:03:45;20.60;97.80
19943;DHT22;10133;50.956;17.276;2022-12-18T01:06:14;20.70;97.80
19943;DHT22;10133;50.956;17.276;2022-12-18T01:08:41;20.70;97.70
19943;DHT22;10133;50.956;17.276;2022-12-18T01:11:11;20.70;97.70
19943;DHT22;10133;50.956;17.276;2022-12-18T01:13:39;20.70;97.60
19943;DHT22;10133;50.956;17.276;2022-12-18T01:16:06;20.70;97.60
19943;DHT22;10133;50.956;17.276;2022-12-18T01:18:34;20.70;97.60
19943;DHT22;10133;50.956;17.276;2022-12-18T01:21:04;20.70;97.50
19943;DHT22;10133;50.956;17.276;2022-12-18T01:23:31;20.70;97.50
19943;DHT22;10133;50.956;17.276;2022-12-18T01:26:03;20.70;97.40
19943;DHT22;10133;50.956;17.276;2022-12-18T01:28:30;20.70;97.40
19943;DHT22;10133;50.956;17.276;2022-12-18T01:30:56;20.80;97.40
19943;DHT22;10133;50.956;17.276;2022-12-18T01:33:23;20.80;97.30
19943;DHT22;10133;50.956;17.276;2022-12-18T01:35:51;20.80;97.30
19943;DHT22;10133;50.956;17.276;2022-12-18T01:38:17;20.80;97.30
19943;DHT22;10133;50.956;17.276;2022-12-18T01:40:44;20.80;97.20
19943;DHT22;10133;50.956;17.276;2022-12-18T01:43:11;20.80;97.20
19943;DHT22;10133;50.956;17.276;2022-12-18T01:45:38;20.80;97.10
19943;DHT22;10133;50.956;17.276;2022-12-18T01:48:06;20.80;97.10
19943;DHT22;10133;50.956;17.276;2022-12-18T01:50:42;20.80;97.10
19943;DHT22;10133;50.956;17.276;2022-12-18T01:53:22;20.80;97.00
19943;DHT22;10133;50.956;17.276;2022-12-18T01:55:52;20.80;97.00
19943;DHT22;10133;50.956;17.276;2022-12-18T02:01:08;20.90;96.90
19943;DHT22;10133;50.956;17.276;2022-12-18T02:03:35;20.90;96.90
19943;DHT22;10133;50.956;17.276;2022-12-18T02:11:58;20.90;96.80
19943;DHT22;10133;50.956;17.276;2022-12-18T02:19:50;20.90;96.70
19943;DHT22;10133;50.956;17.276;2022-12-18T02:27:44;20.90;96.60
19943;DHT22;10133;50.956;17.276;2022-12-18T02:30:13;20.90;96.60
19943;DHT22;10133;50.956;17.276;2022-12-18T02:32:43;20.90;96.60
19943;DHT22;10133;50.956;17.276;2022-12-18T02:35:15;20.90;96.50
19943;DHT22;10133;50.956;17.276;2022-12-18T02:37:44;21.00;96.50
19943;DHT22;10133;50.956;17.276;2022-12-18T02:40:14;20.90;96.50
19943;DHT22;10133;50.956;17.276;2022-12-18T02:42:42;20.90;96.40
19943;DHT22;10133;50.956;17.276;2022-12-18T02:45:09;20.90;96.40
19943;DHT22;10133;50.956;17.276;2022-12-18T02:47:39;20.90;96.40
19943;DHT22;10133;50.956;17.276;2022-12-18T03:01:19;21.00;96.30
19943;DHT22;10133;50.956;17.276;2022-12-18T03:04:01;21.00;96.30
19943;DHT22;10133;50.956;17.276;2022-12-18T03:06:35;21.00;96.20
19943;DHT22;10133;50.956;17.276;2022-12-18T03:09:10;21.00;96.20
19943;DHT22;10133;50.956;17.276;2022-12-18T03:11:41;21.00;96.20
19943;DHT22;10133;50.956;17.276;2022-12-18T03:14:30;21.00;96.20
19943;DHT22;10133;50.956;17.276;2022-12-18T03:17:01;21.00;96.10
19943;DHT22;10133;50.956;17.276;2022-12-18T03:19:32;21.00;96.10
19943;DHT22;10133;50.956;17.276;2022-12-18T03:22:02;21.00;96.10
19943;DHT22;10133;50.956;17.276;2022-12-18T03:24:31;21.10;96.10
19943;DHT22;10133;50.956;17.276;2022-12-18T03:27:06;21.10;96.10
19943;DHT22;10133;50.956;17.276;2022-12-18T03:32:12;21.00;96.00
19943;DHT22;10133;50.956;17.276;2022-12-18T03:34:42;21.10;96.00
19943;DHT22;10133;50.956;17.276;2022-12-18T03:37:10;21.00;96.00
19943;DHT22;10133;50.956;17.276;2022-12-18T03:39:37;21.00;95.90
19943;DHT22;10133;50.956;17.276;2022-12-18T03:48:06;21.10;95.90
19943;DHT22;10133;50.956;17.276;2022-12-18T03:51:00;21.10;95.90
19943;DHT22;10133;50.956;17.276;2022-12-18T03:56:42;21.10;95.80
19943;DHT22;10133;50.956;17.276;2022-12-18T03:59:12;21.10;95.80
19943;DHT22;10133;50.956;17.276;2022-12-18T04:01:46;21.10;95.80
19943;DHT22;10133;50.956;17.276;2022-12-18T04:04:15;21.10;95.80
19943;DHT22;10133;50.956;17.276;2022-12-18T04:06:43;21.10;95.70
19943;DHT22;10133;50.956;17.276;2022-12-18T04:09:12;21.10;95.70
19943;DHT22;10133;50.956;17.276;2022-12-18T04:11:40;21.10;95.70
19943;DHT22;10133;50.956;17.276;2022-12-18T04:14:08;21.10;95.70
19943;DHT22;10133;50.956;17.276;2022-12-18T04:16:43;21.10;95.70
19943;DHT22;10133;50.956;17.276;2022-12-18T04:19:09;21.10;95.70
19943;DHT22;10133;50.956;17.276;2022-12-18T04:21:37;21.20;95.70
19943;DHT22;10133;50.956;17.276;2022-12-18T04:24:04;21.10;95.60
19943;DHT22;10133;50.956;17.276;2022-12-18T04:26:31;21.20;95.60
19943;DHT22;10133;50.956;17.276;2022-12-18T04:28:58;21.20;95.60
19943;DHT22;10133;50.956;17.276;2022-12-18T04:31:25;21.10;95.50
19943;DHT22;10133;50.956;17.276;2022-12-18T04:33:52;21.10;95.50
19943;DHT22;10133;50.956;17.276;2022-12-18T04:36:19;21.10;95.50
19943;DHT22;10133;50.956;17.276;2022-12-18T04:38:46;21.10;95.50
19943;DHT22;10133;50.956;17.276;2022-12-18T04:41:12;21.10;95.50
19943;DHT22;10133;50.956;17.276;2022-12-18T04:43:39;21.10;95.50
19943;DHT22;10133;50.956;17.276;2022-12-18T04:46:07;21.10;95.50
19943;DHT22;10133;50.956;17.276;2022-12-18T04:48:35;21.10;95.50
19943;DHT22;10133;50.956;17.276;2022-12-18T04:51:03;21.10;95.50
19943;DHT22;10133;50.956;17.276;2022-12-18T04:53:30;21.10;95.50
19943;DHT22;10133;50.956;17.276;2022-12-18T04:56:08;21.10;95.50
19943;DHT22;10133;50.956;17.276;2022-12-18T04:58:36;21.10;95.50
19943;DHT22;10133;50.956;17.276;2022-12-18T05:01:03;21.20;95.50
19943;DHT22;10133;50.956;17.276;2022-12-18T05:03:30;21.20;95.50
19943;DHT22;10133;50.956;17.276;2022-12-18T05:05:57;21.20;95.50
19943;DHT22;10133;50.956;17.276;2022-12-18T05:08:24;21.20;95.50
19943;DHT22;10133;50.956;17.276;2022-12-18T05:11:05;21.20;95.40
19943;DHT22;10133;50.956;17.276;2022-12-18T05:13:33;21.20;95.40
19943;DHT22;10133;50.956;17.276;2022-12-18T05:16:00;21.20;95.40
19943;DHT22;10133;50.956;17.276;2022-12-18T05:18:27;21.20;95.40
19943;DHT22;10133;50.956;17.276;2022-12-18T05:20:54;21.20;95.30
19943;DHT22;10133;50.956;17.276;2022-12-18T05:23:22;21.20;95.30
19943;DHT22;10133;50.956;17.276;2022-12-18T05:25:55;21.20;95.30
19943;DHT22;10133;50.956;17.276;2022-12-18T05:28:23;21.20;95.30
19943;DHT22;10133;50.956;17.276;2022-12-18T05:30:51;21.20;95.30
19943;DHT22;10133;50.956;17.276;2022-12-18T05:33:20;21.20;95.20
19943;DHT22;10133;50.956;17.276;2022-12-18T05:35:52;21.20;95.20
19943;DHT22;10133;50.956;17.276;2022-12-18T05:38:23;21.30;95.20
19943;DHT22;10133;50.956;17.276;2022-12-18T05:40:51;21.20;95.20
19943;DHT22;10133;50.956;17.276;2022-12-18T05:43:19;21.30;95.20
19943;DHT22;10133;50.956;17.276;2022-12-18T05:45:48;21.20;95.20
19943;DHT22;10133;50.956;17.276;2022-12-18T05:48:16;21.20;95.20
19943;DHT22;10133;50.956;17.276;2022-12-18T05:50:44;21.30;95.20
19943;DHT22;10133;50.956;17.276;2022-12-18T05:53:14;21.30;95.20
19943;DHT22;10133;50.956;17.276;2022-12-18T05:55:42;21.30;95.10
19943;DHT22;10133;50.956;17.276;2022-12-18T05:58:10;21.30;95.10
19943;DHT22;10133;50.956;17.276;2022-12-18T06:00:39;21.30;95.10
19943;DHT22;10133;50.956;17.276;2022-12-18T06:03:07;21.30;95.10
19943;DHT22;10133;50.956;17.276;2022-12-18T06:05:40;21.30;95.10
19943;DHT22;10133;50.956;17.276;2022-12-18T06:08:08;21.30;95.10
19943;DHT22;10133;50.956;17.276;2022-12-18T06:10:35;21.30;95.10
19943;DHT22;10133;50.956;17.276;2022-12-18T06:13:03;21.30;95.10
19943;DHT22;10133;50.956;17.276;2022-12-18T06:15:30;21.30;95.00
19943;DHT22;10133;50.956;17.276;2022-12-18T06:17:56;21.30;95.00
19943;DHT22;10133;50.956;17.276;2022-12-18T06:20:23;21.30;95.00
19943;DHT22;10133;50.956;17.276;2022-12-18T06:22:57;21.30;95.00
19943;DHT22;10133;50.956;17.276;2022-12-18T06:25:24;21.30;95.00
19943;DHT22;10133;50.956;17.276;2022-12-18T06:27:51;21.30;95.00
19943;DHT22;10133;50.956;17.276;2022-12-18T06:30:18;21.30;95.00
19943;DHT22;10133;50.956;17.276;2022-12-18T06:32:44;21.30;95.00
19943;DHT22;10133;50.956;17.276;2022-12-18T06:35:14;21.30;95.00
19943;DHT22;10133;50.956;17.276;2022-12-18T06:37:41;21.30;94.90
19943;DHT22;10133;50.956;17.276;2022-12-18T06:40:08;21.30;95.00
19943;DHT22;10133;50.956;17.276;2022-12-18T06:42:35;21.30;94.90
19943;DHT22;10133;50.956;17.276;2022-12-18T06:45:02;21.30;94.90
19943;DHT22;10133;50.956;17.276;2022-12-18T06:47:29;21.30;94.90
19943;DHT22;10133;50.956;17.276;2022-12-18T06:49:56;21.30;94.90
19943;DHT22;10133;50.956;17.276;2022-12-18T06:52:23;21.40;94.90
19943;DHT22;10133;50.956;17.276;2022-12-18T06:54:50;21.30;94.90
19943;DHT22;10133;50.956;17.276;2022-12-18T06:57:17;21.30;94.90
19943;DHT22;10133;50.956;17.276;2022-12-18T06:59:44;21.30;94.90
19943;DHT22;10133;50.956;17.276;2022-12-18T07:02:12;21.40;94.90
19943;DHT22;10133;50.956;17.276;2022-12-18T07:04:39;21.40;94.90
19943;DHT22;10133;50.956;17.276;2022-12-18T07:07:06;21.40;94.80
19943;DHT22;10133;50.956;17.276;2022-12-18T07:09:33;21.40;94.80
19943;DHT22;10133;50.956;17.276;2022-12-18T07:12:00;21.40;94.80
19943;DHT22;10133;50.956;17.276;2022-12-18T07:14:27;21.40;94.80
19943;DHT22;10133;50.956;17.276;2022-12-18T07:16:55;21.40;94.80
19943;DHT22;10133;50.956;17.276;2022-12-18T07:19:22;21.40;94.80
19943;DHT22;10133;50.956;17.276;2022-12-18T07:21:50;21.40;94.70
19943;DHT22;10133;50.956;17.276;2022-12-18T07:24:17;21.40;94.70
19943;DHT22;10133;50.956;17.276;2022-12-18T07:26:47;21.40;94.70
19943;DHT22;10133;50.956;17.276;2022-12-18T07:29:14;21.40;94.70
19943;DHT22;10133;50.956;17.276;2022-12-18T07:31:41;21.40;94.70
19943;DHT22;10133;50.956;17.276;2022-12-18T07:34:15;21.40;94.70
19943;DHT22;10133;50.956;17.276;2022-12-18T07:36:42;21.40;94.70
19943;DHT22;10133;50.956;17.276;2022-12-18T07:39:10;21.40;94.50
19943;DHT22;10133;50.956;17.276;2022-12-18T07:44:10;21.40;92.30
19943;DHT22;10133;50.956;17.276;2022-12-18T07:46:38;18.60;52.20
19943;DHT22;10133;50.956;17.276;2022-12-18T07:49:04;14.80;52.80
19943;DHT22;10133;50.956;17.276;2022-12-18T07:51:31;11.10;57.30
19943;DHT22;10133;50.956;17.276;2022-12-18T07:53:58;8.10;63.90
19943;DHT22;10133;50.956;17.276;2022-12-18T07:56:25;5.80;70.30
19943;DHT22;10133;50.956;17.276;2022-12-18T07:58:56;4.00;75.80
19943;DHT22;10133;50.956;17.276;2022-12-18T08:01:23;2.60;81.10
19943;DHT22;10133;50.956;17.276;2022-12-18T08:03:51;1.50;86.00
19943;DHT22;10133;50.956;17.276;2022-12-18T08:06:18;0.60;90.00
19943;DHT22;10133;50.956;17.276;2022-12-18T08:08:54;-0.10;91.60
19943;DHT22;10133;50.956;17.276;2022-12-18T08:11:22;-0.70;93.10
19943;DHT22;10133;50.956;17.276;2022-12-18T08:13:50;-1.10;94.50
19943;DHT22;10133;50.956;17.276;2022-12-18T08:16:17;-1.50;95.80
19943;DHT22;10133;50.956;17.276;2022-12-18T08:18:46;-1.80;97.20
19943;DHT22;10133;50.956;17.276;2022-12-18T08:21:18;-2.10;98.50
19943;DHT22;10133;50.956;17.276;2022-12-18T08:23:48;-2.30;99.90
19943;DHT22;10133;50.956;17.276;2022-12-18T08:26:17;-2.30;99.90
19943;DHT22;10133;50.956;17.276;2022-12-18T08:28:44;-2.40;99.90
19943;DHT22;10133;50.956;17.276;2022-12-18T08:31:11;-1.30;99.90
19943;DHT22;10133;50.956;17.276;2022-12-18T08:33:39;-2.50;99.90
19943;DHT22;10133;50.956;17.276;2022-12-18T08:36:08;-1.80;99.90
19943;DHT22;10133;50.956;17.276;2022-12-18T08:38:36;-2.60;99.90
19943;DHT22;10133;50.956;17.276;2022-12-18T08:41:05;-1.40;99.90
19943;DHT22;10133;50.956;17.276;2022-12-18T08:43:33;-2.50;99.90
19943;DHT22;10133;50.956;17.276;2022-12-18T08:46:19;-2.60;99.90
19943;DHT22;10133;50.956;17.276;2022-12-18T08:48:47;-2.60;99.90
19943;DHT22;10133;50.956;17.276;2022-12-18T08:51:16;-2.70;99.90
19943;DHT22;10133;50.956;17.276;2022-12-18T08:53:44;-2.70;99.90
19943;DHT22;10133;50.956;17.276;2022-12-18T08:56:11;-2.70;99.90
19943;DHT22;10133;50.956;17.276;2022-12-18T08:58:39;-2.70;99.90
19943;DHT22;10133;50.956;17.276;2022-12-18T09:01:08;-2.70;99.90
19943;DHT22;10133;50.956;17.276;2022-12-18T09:03:36;-2.70;99.90
19943;DHT22;10133;50.956;17.276;2022-12-18T09:06:04;-2.70;99.90
19943;DHT22;10133;50.956;17.276;2022-12-18T09:08:31;-2.70;99.90
19943;DHT22;10133;50.956;17.276;2022-12-18T09:10:58;-2.70;99.90
19943;DHT22;10133;50.956;17.276;2022-12-18T09:13:25;-2.60;99.90
19943;DHT22;10133;50.956;17.276;2022-12-18T09:15:53;-2.50;99.90
19943;DHT22;10133;50.956;17.276;2022-12-18T09:18:23;-2.50;99.90
19943;DHT22;10133;50.956;17.276;2022-12-18T09:20:49;-2.40;99.90
19943;DHT22;10133;50.956;17.276;2022-12-18T09:23:20;-2.30;99.90
19943;DHT22;10133;50.956;17.276;2022-12-18T09:25:47;-2.30;99.90
19943;DHT22;10133;50.956;17.276;2022-12-18T09:28:17;-2.30;99.90
19943;DHT22;10133;50.956;17.276;2022-12-18T09:30:49;-2.30;99.90
19943;DHT22;10133;50.956;17.276;2022-12-18T09:33:16;-2.30;99.90
19943;DHT22;10133;50.956;17.276;2022-12-18T09:35:44;-2.30;99.90
19943;DHT22;10133;50.956;17.276;2022-12-18T09:38:13;-2.30;99.90
19943;DHT22;10133;50.956;17.276;2022-12-18T09:40:52;-2.30;99.90
19943;DHT22;10133;50.956;17.276;2022-12-18T09:43:28;-2.20;99.90
19943;DHT22;10133;50.956;17.276;2022-12-18T09:46:01;-2.30;99.90
19943;DHT22;10133;50.956;17.276;2022-12-18T09:48:33;-2.30;99.90
19943;DHT22;10133;50.956;17.276;2022-12-18T09:51:05;-2.20;99.90
19943;DHT22;10133;50.956;17.276;2022-12-18T09:53:38;-2.20;99.90
19943;DHT22;10133;50.956;17.276;2022-12-18T09:56:12;-2.20;99.90
19943;DHT22;10133;50.956;17.276;2022-12-18T09:58:48;-2.20;99.90
19943;DHT22;10133;50.956;17.276;2022-12-18T10:01:22;-2.30;99.90
19943;DHT22;10133;50.956;17.276;2022-12-18T10:03:52;-2.30;99.90
19943;DHT22;10133;50.956;17.276;2022-12-18T10:15:21;-2.30;99.90
19943;DHT22;10133;50.956;17.276;2022-12-18T10:20:58;-2.40;99.90
19943;DHT22;10133;50.956;17.276;2022-12-18T10:23:47;-2.40;99.90
19943;DHT22;10133;50.956;17.276;2022-12-18T10:26:17;-2.40;99.90
19943;DHT22;10133;50.956;17.276;2022-12-18T10:28:44;-2.40;99.90
19943;DHT22;10133;50.956;17.276;2022-12-18T10:31:17;-2.40;99.90
19943;DHT22;10133;50.956;17.276;2022-12-18T10:33:45;-2.40;99.90
19943;DHT22;10133;50.956;17.276;2022-12-18T10:36:12;-2.40;99.90
19943;DHT22;10133;50.956;17.276;2022-12-18T10:38:40;-2.40;99.90
19943;DHT22;10133;50.956;17.276;2022-12-18T10:41:27;-2.40;99.90
19943;DHT22;10133;50.956;17.276;2022-12-18T10:44:27;-2.30;99.90
19943;DHT22;10133;50.956;17.276;2022-12-18T10:46:55;-2.20;99.90
19943;DHT22;10133;50.956;17.276;2022-12-18T10:49:35;-2.20;99.90
19943;DHT22;10133;50.956;17.276;2022-12-18T10:52:11;-2.20;99.90
19943;DHT22;10133;50.956;17.276;2022-12-18T10:59:55;-2.10;99.90
19943;DHT22;10133;50.956;17.276;2022-12-18T11:02:37;-2.10;99.90
19943;DHT22;10133;50.956;17.276;2022-12-18T11:05:37;-2.10;99.90
19943;DHT22;10133;50.956;17.276;2022-12-18T11:08:04;-2.20;99.90
19943;DHT22;10133;50.956;17.276;2022-12-18T11:10:36;-2.20;99.90
19943;DHT22;10133;50.956;17.276;2022-12-18T11:13:22;-2.20;99.90
19943;DHT22;10133;50.956;17.276;2022-12-18T11:15:50;-2.20;99.90
19943;DHT22;10133;50.956;17.276;2022-12-18T11:18:25;-2.10;99.90
19943;DHT22;10133;50.956;17.276;2022-12-18T11:21:05;-2.10;99.90
19943;DHT22;10133;50.956;17.276;2022-12-18T11:23:34;-2.00;99.90
19943;DHT22;10133;50.956;17.276;2022-12-18T11:26:03;-2.10;99.90
19943;DHT22;10133;50.956;17.276;2022-12-18T11:28:38;-2.10;99.90
19943;DHT22;10133;50.956;17.276;2022-12-18T11:31:21;-2.10;99.90
19943;DHT22;10133;50.956;17.276;2022-12-18T11:34:11;-2.10;99.90
19943;DHT22;10133;50.956;17.276;2022-12-18T11:36:58;-2.10;99.90
19943;DHT22;10133;50.956;17.276;2022-12-18T11:39:38;-2.10;99.90
19943;DHT22;10133;50.956;17.276;2022-12-18T11:42:14;-2.10;99.90
19943;DHT22;10133;50.956;17.276;2022-12-18T11:44:57;-2.00;99.90
19943;DHT22;10133;50.956;17.276;2022-12-18T11:47:39;-2.00;99.90
19943;DHT22;10133;50.956;17.276;2022-12-18T11:50:14;-1.90;99.90
19943;DHT22;10133;50.956;17.276;2022-12-18T11:52:42;-1.90;99.90
19943;DHT22;10133;50.956;17.276;2022-12-18T11:55:15;-1.90;99.90
19943;DHT22;10133;50.956;17.276;2022-12-18T12:00:47;-1.80;99.90
19943;DHT22;10133;50.956;17.276;2022-12-18T12:03:39;-1.70;99.90
19943;DHT22;10133;50.956;17.276;2022-12-18T12:06:15;-1.60;99.90
19943;DHT22;10133;50.956;17.276;2022-12-18T12:26:20;-1.40;99.90
19943;DHT22;10133;50.956;17.276;2022-12-18T12:40:51;-1.80;99.90
19943;DHT22;10133;50.956;17.276;2022-12-18T12:43:45;-1.90;99.90
19943;DHT22;10133;50.956;17.276;2022-12-18T12:46:36;-2.00;99.90
19943;DHT22;10133;50.956;17.276;2022-12-18T12:49:13;-2.10;99.90
19943;DHT22;10133;50.956;17.276;2022-12-18T12:51:45;-2.10;99.90
19943;DHT22;10133;50.956;17.276;2022-12-18T12:54:17;-2.10;99.90
19943;DHT22;10133;50.956;17.276;2022-12-18T13:06:19;-2.10;99.90
19943;DHT22;10133;50.956;17.276;2022-12-18T13:10:51;-2.30;99.90
19943;DHT22;10133;50.956;17.276;2022-12-18T13:13:54;-2.40;99.90
19943;DHT22;10133;50.956;17.276;2022-12-18T13:16:24;-2.50;99.90
19943;DHT22;10133;50.956;17.276;2022-12-18T13:18:52;-2.60;99.90
19943;DHT22;10133;50.956;17.276;2022-12-18T13:21:28;-2.60;99.90
19943;DHT22;10133;50.956;17.276;2022-12-18T13:23:56;-2.70;99.90
19943;DHT22;10133;50.956;17.276;2022-12-18T13:28:56;-2.80;99.90
19943;DHT22;10133;50.956;17.276;2022-12-18T13:34:23;-2.90;99.90
19943;DHT22;10133;50.956;17.276;2022-12-18T13:36:55;-2.90;99.90
19943;DHT22;10133;50.956;17.276;2022-12-18T13:39:32;-3.00;99.90
19943;DHT22;10133;50.956;17.276;2022-12-18T13:44:57;-3.10;99.90
19943;DHT22;10133;50.956;17.276;2022-12-18T13:47:32;-3.10;99.90
19943;DHT22;10133;50.956;17.276;2022-12-18T13:50:02;-3.20;99.90
19943;DHT22;10133;50.956;17.276;2022-12-18T13:52:37;-3.20;99.90
19943;DHT22;10133;50.956;17.276;2022-12-18T13:55:14;-3.20;99.90
19943;DHT22;10133;50.956;17.276;2022-12-18T13:57:41;-3.30;99.90
19943;DHT22;10133;50.956;17.276;2022-12-18T14:00:30;-3.30;99.90
19943;DHT22;10133;50.956;17.276;2022-12-18T14:02:59;-3.30;99.90
19943;DHT22;10133;50.956;17.276;2022-12-18T14:05:36;-3.40;99.90
19943;DHT22;10133;50.956;17.276;2022-12-18T14:08:09;-3.40;99.90
19943;DHT22;10133;50.956;17.276;2022-12-18T14:10:42;-3.40;99.90
19943;DHT22;10133;50.956;17.276;2022-12-18T14:13:27;-3.50;99.90
19943;DHT22;10133;50.956;17.276;2022-12-18T14:15:55;-3.60;99.90
19943;DHT22;10133;50.956;17.276;2022-12-18T14:21:26;-3.60;99.90
19943;DHT22;10133;50.956;17.276;2022-12-18T14:24:13;-3.70;99.90
19943;DHT22;10133;50.956;17.276;2022-12-18T14:26:45;-3.70;99.90
19943;DHT22;10133;50.956;17.276;2022-12-18T14:29:24;-3.70;99.90
19943;DHT22;10133;50.956;17.276;2022-12-18T14:32:09;-3.80;99.90
19943;DHT22;10133;50.956;17.276;2022-12-18T14:34:48;-3.80;99.90
19943;DHT22;10133;50.956;17.276;2022-12-18T14:37:21;-3.80;99.90
19943;DHT22;10133;50.956;17.276;2022-12-18T14:39:59;-3.80;99.90
19943;DHT22;10133;50.956;17.276;2022-12-18T14:42:36;-3.90;99.90
19943;DHT22;10133;50.956;17.276;2022-12-18T14:45:35;-3.90;99.90
19943;DHT22;10133;50.956;17.276;2022-12-18T14:51:17;-3.90;99.90
19943;DHT22;10133;50.956;17.276;2022-12-18T14:54:02;-3.90;99.90
19943;DHT22;10133;50.956;17.276;2022-12-18T14:56:37;-4.00;99.90
19943;DHT22;10133;50.956;17.276;2022-12-18T14:59:24;-4.00;99.90
19943;DHT22;10133;50.956;17.276;2022-12-18T15:04:36;-4.00;99.90
19943;DHT22;10133;50.956;17.276;2022-12-18T15:12:38;-4.10;99.90
19943;DHT22;10133;50.956;17.276;2022-12-18T15:25:58;-4.30;99.90
19943;DHT22;10133;50.956;17.276;2022-12-18T15:28:37;-4.30;99.90
19943;DHT22;10133;50.956;17.276;2022-12-18T15:33:38;-4.40;99.90
19943;DHT22;10133;50.956;17.276;2022-12-18T15:36:12;-4.50;99.90
19943;DHT22;10133;50.956;17.276;2022-12-18T15:38:39;-4.50;99.90
19943;DHT22;10133;50.956;17.276;2022-12-18T15:41:10;-4.50;99.90
19943;DHT22;10133;50.956;17.276;2022-12-18T15:43:40;-4.60;99.90
19943;DHT22;10133;50.956;17.276;2022-12-18T15:46:18;-4.60;99.90
19943;DHT22;10133;50.956;17.276;2022-12-18T15:51:23;-4.70;99.90
19943;DHT22;10133;50.956;17.276;2022-12-18T15:53:53;-4.70;99.90
19943;DHT22;10133;50.956;17.276;2022-12-18T15:56:21;-4.80;99.90
19943;DHT22;10133;50.956;17.276;2022-12-18T15:59:16;-4.90;99.90
19943;DHT22;10133;50.956;17.276;2022-12-18T16:01:45;-4.90;99.90
19943;DHT22;10133;50.956;17.276;2022-12-18T16:04:15;-5.00;99.90
19943;DHT22;10133;50.956;17.276;2022-12-18T16:06:42;-5.10;99.90
19943;DHT22;10133;50.956;17.276;2022-12-18T16:09:29;-5.10;99.90
19943;DHT22;10133;50.956;17.276;2022-12-18T16:12:00;-5.10;99.90
19943;DHT22;10133;50.956;17.276;2022-12-18T16:14:29;-5.30;99.90
19943;DHT22;10133;50.956;17.276;2022-12-18T16:17:01;-5.30;99.90
19943;DHT22;10133;50.956;17.276;2022-12-18T16:19:29;-5.40;99.90
19943;DHT22;10133;50.956;17.276;2022-12-18T16:21:57;-5.40;99.90
19943;DHT22;10133;50.956;17.276;2022-12-18T16:24:27;-5.50;99.90
19943;DHT22;10133;50.956;17.276;2022-12-18T16:26:56;-5.60;99.90
19943;DHT22;10133;50.956;17.276;2022-12-18T16:29:24;-5.60;99.90
19943;DHT22;10133;50.956;17.276;2022-12-18T16:31:55;-5.60;99.90
19943;DHT22;10133;50.956;17.276;2022-12-18T16:34:30;-5.70;99.90
19943;DHT22;10133;50.956;17.276;2022-12-18T16:37:06;-5.70;99.90
19943;DHT22;10133;50.956;17.276;2022-12-18T16:39:34;-5.70;99.90
19943;DHT22;10133;50.956;17.276;2022-12-18T16:42:16;-5.80;99.90
19943;DHT22;10133;50.956;17.276;2022-12-18T16:44:47;-5.80;99.90
19943;DHT22;10133;50.956;17.276;2022-12-18T16:47:14;-5.90;99.90
19943;DHT22;10133;50.956;17.276;2022-12-18T16:49:42;-6.00;99.90
19943;DHT22;10133;50.956;17.276;2022-12-18T16:52:11;-6.00;99.90
19943;DHT22;10133;50.956;17.276;2022-12-18T16:59:34;-6.20;99.90
19943;DHT22;10133;50.956;17.276;2022-12-18T17:02:01;-5.80;99.90
19943;DHT22;10133;50.956;17.276;2022-12-18T17:11:52;-6.40;99.90
19943;DHT22;10133;50.956;17.276;2022-12-18T17:14:21;-6.40;99.90
19943;DHT22;10133;50.956;17.276;2022-12-18T17:16:48;-6.70;99.90
19943;DHT22;10133;50.956;17.276;2022-12-18T17:19:33;-6.50;99.90
19943;DHT22;10133;50.956;17.276;2022-12-18T17:36:53;-6.70;99.90
19943;DHT22;10133;50.956;17.276;2022-12-18T17:39:20;-6.70;99.90
19943;DHT22;10133;50.956;17.276;2022-12-18T17:41:47;-6.10;99.90
19943;DHT22;10133;50.956;17.276;2022-12-18T17:44:16;-6.60;99.90
19943;DHT22;10133;50.956;17.276;2022-12-18T17:49:12;-6.60;99.90
19943;DHT22;10133;50.956;17.276;2022-12-18T17:51:39;-7.10;99.90
19943;DHT22;10133;50.956;17.276;2022-12-18T17:54:09;-6.60;99.90
19943;DHT22;10133;50.956;17.276;2022-12-18T17:56:37;-6.50;99.90
19943;DHT22;10133;50.956;17.276;2022-12-18T17:59:05;-6.70;99.90
19943;DHT22;10133;50.956;17.276;2022-12-18T18:04:04;-6.70;99.90
19943;DHT22;10133;50.956;17.276;2022-12-18T18:09:00;-6.00;99.90
19943;DHT22;10133;50.956;17.276;2022-12-18T18:11:27;-7.20;99.90
19943;DHT22;10133;50.956;17.276;2022-12-18T18:14:15;-6.80;99.90
19943;DHT22;10133;50.956;17.276;2022-12-18T18:16:48;-6.50;99.90
19943;DHT22;10133;50.956;17.276;2022-12-18T18:19:17;-7.10;99.90
19943;DHT22;10133;50.956;17.276;2022-12-18T18:21:47;-6.60;99.90
19943;DHT22;10133;50.956;17.276;2022-12-18T18:24:17;-6.50;99.90
19943;DHT22;10133;50.956;17.276;2022-12-18T18:26:44;-7.00;99.90
19943;DHT22;10133;50.956;17.276;2022-12-18T18:29:19;-5.10;99.90
19943;DHT22;10133;50.956;17.276;2022-12-18T18:31:47;-6.90;99.90
19943;DHT22;10133;50.956;17.276;2022-12-18T18:34:22;-7.20;99.90
19943;DHT22;10133;50.956;17.276;2022-12-18T18:36:50;-7.70;99.90
19943;DHT22;10133;50.956;17.276;2022-12-18T18:41:45;-7.30;99.90
19943;DHT22;10133;50.956;17.276;2022-12-18T18:44:15;-7.20;99.90